createdAt,value
2017-11-23T00:00:22.408Z,0.00
2017-11-23T00:01:22.395Z,0.00
2017-11-23T00:02:22.395Z,0.00
2017-11-23T00:03:22.381Z,0.00
2017-11-23T00:04:22.376Z,0.00
2017-11-23T00:05:22.362Z,0.00
2017-11-23T00:06:22.357Z,0.00
2017-11-23T00:07:22.353Z,0.00
2017-11-23T00:08:22.337Z,0.00
2017-11-23T00:09:22.332Z,0.00
2017-11-23T00:10:22.322Z,0.00
2017-11-23T00:11:22.316Z,0.00
2017-11-23T00:12:22.312Z,0.00
2017-11-23T00:13:22.302Z,0.00
2017-11-23T00:14:22.886Z,0.00
2017-11-23T00:15:22.285Z,0.00
2017-11-23T00:16:22.273Z,0.00
2017-11-23T00:17:22.258Z,0.00
2017-11-23T00:18:22.262Z,0.00
2017-11-23T00:19:22.250Z,0.00
2017-11-23T00:20:22.239Z,0.00
2017-11-23T00:21:22.238Z,0.00
2017-11-23T00:22:22.235Z,0.00
2017-11-23T00:23:22.222Z,0.00
2017-11-23T00:24:22.215Z,0.00
2017-11-23T00:25:22.203Z,0.00
2017-11-23T00:26:22.194Z,0.00
2017-11-23T00:27:22.889Z,0.00
2017-11-23T00:28:22.186Z,0.00
2017-11-23T00:29:22.192Z,0.00
2017-11-23T00:30:22.177Z,0.00
2017-11-23T00:31:22.165Z,0.00
2017-11-23T00:32:22.166Z,0.00
2017-11-23T00:33:22.137Z,0.00
2017-11-23T00:34:22.131Z,0.00
2017-11-23T00:35:22.132Z,0.00
2017-11-23T00:36:22.116Z,0.00
2017-11-23T00:37:22.106Z,0.00
2017-11-23T00:38:22.098Z,0.00
2017-11-23T00:39:22.101Z,0.00
2017-11-23T00:40:22.090Z,0.00
2017-11-23T00:41:22.896Z,0.00
2017-11-23T00:42:22.076Z,0.00
2017-11-23T00:43:22.066Z,0.00
2017-11-23T00:44:22.049Z,0.00
2017-11-23T00:45:22.045Z,0.00
2017-11-23T00:46:22.065Z,0.00
2017-11-23T00:47:22.035Z,0.00
2017-11-23T00:48:22.031Z,0.00
2017-11-23T00:49:22.036Z,0.00
2017-11-23T00:50:22.006Z,0.00
2017-11-23T00:51:21.999Z,0.00
2017-11-23T00:52:21.994Z,0.00
2017-11-23T00:53:21.977Z,0.00
2017-11-23T00:54:21.977Z,0.00
2017-11-23T00:55:24.903Z,0.00
2017-11-23T00:56:21.969Z,0.00
2017-11-23T00:57:21.958Z,0.00
2017-11-23T00:58:21.945Z,0.00
2017-11-23T00:59:21.940Z,0.00
2017-11-23T01:00:21.937Z,0.00
2017-11-23T01:01:21.929Z,0.00
2017-11-23T01:02:24.896Z,0.00
2017-11-23T01:03:21.910Z,0.00
2017-11-23T01:04:21.902Z,0.00
2017-11-23T01:05:21.909Z,0.00
2017-11-23T01:06:21.890Z,0.00
2017-11-23T01:07:21.878Z,0.00
2017-11-23T01:08:21.876Z,0.00
2017-11-23T01:09:21.869Z,0.00
2017-11-23T01:10:21.863Z,0.00
2017-11-23T01:11:21.847Z,0.00
2017-11-23T01:12:21.858Z,0.00
2017-11-23T01:13:21.835Z,0.00
2017-11-23T01:14:21.831Z,0.00
2017-11-23T01:15:21.824Z,0.00
2017-11-23T01:16:22.409Z,0.00
2017-11-23T01:17:21.815Z,0.00
2017-11-23T01:18:21.807Z,0.00
2017-11-23T01:19:21.798Z,0.00
2017-11-23T01:20:21.792Z,0.00
2017-11-23T01:21:22.408Z,0.00
2017-11-23T01:22:21.771Z,0.00
2017-11-23T01:23:21.760Z,0.00
2017-11-23T01:24:21.758Z,0.00
2017-11-23T01:25:21.755Z,0.00
2017-11-23T01:26:21.744Z,0.00
2017-11-23T01:27:21.739Z,0.00
2017-11-23T01:28:21.726Z,0.00
2017-11-23T01:29:21.723Z,0.00
2017-11-23T01:30:21.709Z,0.00
2017-11-23T01:31:21.707Z,0.00
2017-11-23T01:32:21.695Z,0.00
2017-11-23T01:33:21.690Z,0.00
2017-11-23T01:34:21.682Z,0.00
2017-11-23T01:35:21.681Z,0.00
2017-11-23T01:36:21.670Z,0.00
2017-11-23T01:37:21.668Z,0.00
2017-11-23T01:38:22.415Z,0.00
2017-11-23T01:39:21.643Z,0.00
2017-11-23T01:40:21.642Z,0.00
2017-11-23T01:41:21.646Z,0.00
2017-11-23T01:42:21.644Z,0.00
2017-11-23T01:43:21.616Z,0.00
2017-11-23T01:44:22.416Z,0.00
2017-11-23T01:45:21.601Z,0.00
2017-11-23T01:46:21.598Z,0.00
2017-11-23T01:47:21.586Z,0.00
2017-11-23T01:48:21.581Z,0.00
2017-11-23T01:49:21.579Z,0.00
2017-11-23T01:50:22.420Z,0.00
2017-11-23T01:51:21.559Z,0.00
2017-11-23T01:52:21.557Z,0.00
2017-11-23T01:53:21.545Z,0.00
2017-11-23T01:54:21.540Z,0.00
2017-11-23T01:55:21.533Z,0.00
2017-11-23T01:56:21.529Z,0.00
2017-11-23T01:57:21.522Z,0.00
2017-11-23T01:58:21.516Z,0.00
2017-11-23T01:59:21.503Z,0.00
2017-11-23T02:00:21.495Z,0.00
2017-11-23T02:01:21.482Z,0.00
2017-11-23T02:02:21.481Z,0.00
2017-11-23T02:03:21.492Z,0.00
2017-11-23T02:04:21.469Z,0.00
2017-11-23T02:05:22.429Z,0.00
2017-11-23T02:06:21.467Z,0.00
2017-11-23T02:07:21.447Z,0.00
2017-11-23T02:08:21.436Z,0.00
2017-11-23T02:09:21.429Z,0.00
2017-11-23T02:10:21.428Z,0.00
2017-11-23T02:11:21.416Z,0.00
2017-11-23T02:12:21.412Z,0.00
2017-11-23T02:13:21.405Z,0.00
2017-11-23T02:14:21.397Z,0.00
2017-11-23T02:15:21.392Z,0.00
2017-11-23T02:16:21.380Z,0.00
2017-11-23T02:17:21.378Z,0.00
2017-11-23T02:18:21.370Z,0.00
2017-11-23T02:19:21.365Z,0.00
2017-11-23T02:20:21.356Z,0.00
2017-11-23T02:21:21.349Z,0.00
2017-11-23T02:22:21.346Z,0.00
2017-11-23T02:23:21.335Z,0.00
2017-11-23T02:24:21.319Z,0.00
2017-11-23T02:25:21.927Z,0.00
2017-11-23T02:26:21.311Z,0.00
2017-11-23T02:27:21.314Z,0.00
2017-11-23T02:28:21.305Z,0.00
2017-11-23T02:29:21.287Z,0.00
2017-11-23T02:30:21.281Z,0.00
2017-11-23T02:31:21.935Z,0.00
2017-11-23T02:32:23.947Z,0.00
2017-11-23T02:33:21.948Z,0.00
2017-11-23T02:34:21.255Z,0.00
2017-11-23T02:35:21.250Z,0.00
2017-11-23T02:36:21.240Z,0.00
2017-11-23T02:37:21.232Z,0.00
2017-11-23T02:38:21.225Z,0.00
2017-11-23T02:39:21.222Z,0.00
2017-11-23T02:40:21.213Z,0.00
2017-11-23T02:41:21.204Z,0.00
2017-11-23T02:42:21.195Z,0.00
2017-11-23T02:43:21.191Z,0.00
2017-11-23T02:44:21.175Z,0.00
2017-11-23T02:45:21.172Z,0.00
2017-11-23T02:46:21.940Z,0.00
2017-11-23T02:47:21.165Z,0.00
2017-11-23T02:48:21.151Z,0.00
2017-11-23T02:49:21.148Z,0.00
2017-11-23T02:50:21.143Z,0.00
2017-11-23T02:51:21.129Z,0.00
2017-11-23T02:52:21.120Z,0.00
2017-11-23T02:53:21.118Z,0.00
2017-11-23T02:54:21.114Z,0.00
2017-11-23T02:55:21.106Z,0.00
2017-11-23T02:56:21.098Z,0.00
2017-11-23T02:57:21.080Z,0.00
2017-11-23T02:58:21.078Z,0.00
2017-11-23T02:59:21.068Z,0.00
2017-11-23T03:00:21.067Z,0.00
2017-11-23T03:01:21.062Z,0.00
2017-11-23T03:02:21.057Z,0.00
2017-11-23T03:03:21.049Z,0.00
2017-11-23T03:04:21.046Z,0.00
2017-11-23T03:05:21.032Z,0.00
2017-11-23T03:06:21.958Z,0.00
2017-11-23T03:07:21.018Z,0.00
2017-11-23T03:08:21.011Z,0.00
2017-11-23T03:09:21.949Z,0.00
2017-11-23T03:10:20.999Z,0.00
2017-11-23T03:11:20.998Z,0.00
2017-11-23T03:12:20.989Z,0.00
2017-11-23T03:13:20.978Z,0.00
2017-11-23T03:14:20.972Z,0.00
2017-11-23T03:15:20.971Z,0.00
2017-11-23T03:16:21.467Z,0.00
2017-11-23T03:17:20.950Z,0.00
2017-11-23T03:18:20.947Z,0.00
2017-11-23T03:19:20.932Z,0.00
2017-11-23T03:20:20.931Z,0.00
2017-11-23T03:21:20.928Z,0.00
2017-11-23T03:22:20.916Z,0.00
2017-11-23T03:23:20.908Z,0.00
2017-11-23T03:24:20.921Z,0.00
2017-11-23T03:25:20.896Z,0.00
2017-11-23T03:26:20.893Z,0.00
2017-11-23T03:27:20.880Z,0.00
2017-11-23T03:28:20.881Z,0.00
2017-11-23T03:29:20.877Z,0.00
2017-11-23T03:30:20.879Z,0.00
2017-11-23T03:31:20.863Z,0.00
2017-11-23T03:32:20.851Z,0.00
2017-11-23T03:33:20.858Z,0.00
2017-11-23T03:34:20.838Z,0.00
2017-11-23T03:35:20.829Z,0.00
2017-11-23T03:36:20.822Z,0.00
2017-11-23T03:37:20.812Z,0.00
2017-11-23T03:38:20.807Z,0.00
2017-11-23T03:39:20.803Z,0.00
2017-11-23T03:40:20.791Z,0.00
2017-11-23T03:41:20.779Z,0.00
2017-11-23T03:42:20.782Z,0.00
2017-11-23T03:43:20.777Z,0.00
2017-11-23T03:44:20.778Z,0.00
2017-11-23T03:45:20.780Z,0.00
2017-11-23T03:46:20.759Z,0.00
2017-11-23T03:47:20.767Z,0.00
2017-11-23T03:48:20.754Z,0.00
2017-11-23T03:49:20.734Z,0.00
2017-11-23T03:50:20.736Z,0.00
2017-11-23T03:51:20.721Z,0.00
2017-11-23T03:52:20.704Z,0.00
2017-11-23T03:53:20.713Z,0.00
2017-11-23T03:54:20.701Z,0.00
2017-11-23T03:55:20.688Z,0.00
2017-11-23T03:56:20.681Z,0.00
2017-11-23T03:57:20.679Z,0.00
2017-11-23T03:58:20.666Z,0.00
2017-11-23T03:59:20.656Z,0.00
2017-11-23T04:00:20.656Z,0.00
2017-11-23T04:01:20.651Z,0.00
2017-11-23T04:02:20.649Z,0.00
2017-11-23T04:03:20.643Z,0.00
2017-11-23T04:04:20.631Z,0.00
2017-11-23T04:05:20.627Z,0.00
2017-11-23T04:06:20.616Z,0.00
2017-11-23T04:07:20.604Z,0.00
2017-11-23T04:08:20.598Z,0.00
2017-11-23T04:09:20.588Z,0.00
2017-11-23T04:10:20.582Z,0.00
2017-11-23T04:11:20.586Z,0.00
2017-11-23T04:12:20.570Z,0.00
2017-11-23T04:13:20.560Z,0.00
2017-11-23T04:14:20.553Z,0.00
2017-11-23T04:15:20.549Z,0.00
2017-11-23T04:16:20.538Z,0.00
2017-11-23T04:17:20.534Z,0.00
2017-11-23T04:18:20.524Z,0.00
2017-11-23T04:19:20.519Z,0.00
2017-11-23T04:20:20.514Z,0.00
2017-11-23T04:21:20.501Z,0.00
2017-11-23T04:22:20.493Z,0.00
2017-11-23T04:23:20.492Z,0.00
2017-11-23T04:24:20.478Z,0.00
2017-11-23T04:25:20.477Z,0.00
2017-11-23T04:26:20.470Z,0.00
2017-11-23T04:27:20.464Z,0.00
2017-11-23T04:28:20.456Z,0.00
2017-11-23T04:29:20.446Z,0.00
2017-11-23T04:30:20.438Z,0.00
2017-11-23T04:31:20.450Z,0.00
2017-11-23T04:32:20.423Z,0.00
2017-11-23T04:33:20.414Z,0.00
2017-11-23T04:34:20.404Z,0.00
2017-11-23T04:35:20.403Z,0.00
2017-11-23T04:36:20.392Z,0.00
2017-11-23T04:37:20.388Z,0.00
2017-11-23T04:38:20.378Z,0.00
2017-11-23T04:39:20.374Z,0.00
2017-11-23T04:40:20.377Z,0.00
2017-11-23T04:41:20.359Z,0.00
2017-11-23T04:42:20.351Z,0.00
2017-11-23T04:43:20.344Z,0.00
2017-11-23T04:44:20.336Z,0.00
2017-11-23T04:45:20.332Z,0.00
2017-11-23T04:46:20.323Z,0.00
2017-11-23T04:47:20.311Z,0.00
2017-11-23T04:48:20.304Z,0.00
2017-11-23T04:49:20.301Z,0.00
2017-11-23T04:50:20.304Z,0.00
2017-11-23T04:51:20.280Z,0.00
2017-11-23T04:52:20.286Z,0.00
2017-11-23T04:53:20.262Z,0.00
2017-11-23T04:54:20.257Z,0.00
2017-11-23T04:55:20.249Z,0.00
2017-11-23T04:56:20.253Z,0.00
2017-11-23T04:57:20.239Z,0.00
2017-11-23T04:58:20.235Z,0.00
2017-11-23T04:59:20.237Z,0.00
2017-11-23T05:00:20.218Z,0.00
2017-11-23T05:01:20.207Z,0.00
2017-11-23T05:02:20.207Z,0.00
2017-11-23T05:03:20.194Z,0.00
2017-11-23T05:04:20.185Z,0.00
2017-11-23T05:05:20.177Z,0.00
2017-11-23T05:06:20.171Z,0.00
2017-11-23T05:07:20.154Z,0.00
2017-11-23T05:08:20.157Z,0.00
2017-11-23T05:09:20.151Z,0.00
2017-11-23T05:10:20.145Z,0.00
2017-11-23T05:11:20.138Z,0.00
2017-11-23T05:12:20.130Z,0.00
2017-11-23T05:13:20.119Z,0.00
2017-11-23T05:14:20.116Z,0.00
2017-11-23T05:15:20.107Z,0.00
2017-11-23T05:16:20.994Z,0.00
2017-11-23T05:17:20.098Z,0.00
2017-11-23T05:18:20.083Z,0.00
2017-11-23T05:19:20.075Z,0.00
2017-11-23T05:20:20.096Z,0.00
2017-11-23T05:21:20.059Z,0.00
2017-11-23T05:22:20.058Z,0.00
2017-11-23T05:23:20.047Z,0.00
2017-11-23T05:24:20.043Z,0.00
2017-11-23T05:25:20.034Z,0.00
2017-11-23T05:26:20.030Z,0.00
2017-11-23T05:27:20.016Z,0.00
2017-11-23T05:28:20.034Z,0.00
2017-11-23T05:29:19.998Z,0.00
2017-11-23T05:30:19.993Z,0.00
2017-11-23T05:31:19.990Z,0.00
2017-11-23T05:32:19.990Z,0.00
2017-11-23T05:33:19.976Z,0.00
2017-11-23T05:34:19.962Z,0.00
2017-11-23T05:35:20.004Z,0.00
2017-11-23T05:36:19.968Z,0.00
2017-11-23T05:37:19.938Z,0.00
2017-11-23T05:38:19.947Z,0.00
2017-11-23T05:39:19.939Z,0.00
2017-11-23T05:40:19.932Z,0.00
2017-11-23T05:41:19.977Z,0.00
2017-11-23T05:42:19.936Z,0.00
2017-11-23T05:43:19.917Z,0.00
2017-11-23T05:44:22.201Z,0.00
2017-11-23T05:45:19.914Z,0.00
2017-11-23T05:46:19.876Z,0.00
2017-11-23T05:47:19.875Z,0.00
2017-11-23T05:48:19.867Z,0.00
2017-11-23T05:49:20.506Z,0.00
2017-11-23T05:50:19.846Z,0.00
2017-11-23T05:51:19.847Z,0.00
2017-11-23T05:52:19.840Z,0.00
2017-11-23T05:53:19.833Z,0.00
2017-11-23T05:54:19.825Z,0.00
2017-11-23T05:55:19.817Z,0.00
2017-11-23T05:56:19.810Z,0.00
2017-11-23T05:57:19.805Z,0.00
2017-11-23T05:58:19.798Z,0.00
2017-11-23T05:59:19.785Z,0.00
2017-11-23T06:00:19.783Z,0.00
2017-11-23T06:01:19.776Z,0.00
2017-11-23T06:02:19.765Z,0.00
2017-11-23T06:03:19.760Z,0.00
2017-11-23T06:04:19.750Z,0.00
2017-11-23T06:05:19.743Z,0.00
2017-11-23T06:06:19.737Z,0.00
2017-11-23T06:07:22.535Z,0.00
2017-11-23T06:08:19.723Z,0.00
2017-11-23T06:09:20.531Z,0.00
2017-11-23T06:10:19.721Z,0.00
2017-11-23T06:11:19.704Z,0.00
2017-11-23T06:12:19.700Z,0.00
2017-11-23T06:13:19.709Z,0.00
2017-11-23T06:14:19.694Z,0.00
2017-11-23T06:15:19.668Z,0.00
2017-11-23T06:16:19.663Z,0.00
2017-11-23T06:17:19.655Z,0.00
2017-11-23T06:18:20.531Z,0.00
2017-11-23T06:19:19.647Z,0.00
2017-11-23T06:20:19.650Z,0.00
2017-11-23T06:21:20.521Z,0.00
2017-11-23T06:22:19.628Z,0.00
2017-11-23T06:23:19.618Z,0.00
2017-11-23T06:24:19.606Z,0.00
2017-11-23T06:25:19.606Z,0.00
2017-11-23T06:26:19.594Z,0.00
2017-11-23T06:27:19.588Z,0.00
2017-11-23T06:28:19.575Z,0.00
2017-11-23T06:29:19.574Z,0.00
2017-11-23T06:30:19.571Z,0.00
2017-11-23T06:31:19.564Z,0.00
2017-11-23T06:32:19.608Z,0.00
2017-11-23T06:33:19.563Z,0.00
2017-11-23T06:34:19.683Z,0.00
2017-11-23T06:35:19.537Z,0.00
2017-11-23T06:36:19.529Z,4.00
2017-11-23T06:37:19.520Z,4.00
2017-11-23T06:38:19.516Z,4.00
2017-11-23T06:39:19.501Z,8.00
2017-11-23T06:40:19.500Z,4.00
2017-11-23T06:41:19.493Z,8.00
2017-11-23T06:42:19.485Z,4.00
2017-11-23T06:43:19.488Z,8.00
2017-11-23T06:44:22.417Z,8.00
2017-11-23T06:45:19.466Z,8.00
2017-11-23T06:46:22.037Z,8.00
2017-11-23T06:47:19.462Z,12.00
2017-11-23T06:48:19.441Z,16.00
2017-11-23T06:49:20.035Z,16.00
2017-11-23T06:50:19.435Z,16.00
2017-11-23T06:51:19.429Z,20.00
2017-11-23T06:52:19.419Z,28.00
2017-11-23T06:53:19.405Z,32.00
2017-11-23T06:54:19.410Z,36.00
2017-11-23T06:55:19.401Z,36.00
2017-11-23T06:56:19.382Z,44.00
2017-11-23T06:57:19.377Z,48.00
2017-11-23T06:58:19.380Z,52.00
2017-11-23T06:59:19.364Z,56.00
2017-11-23T07:00:19.363Z,64.00
2017-11-23T07:01:20.052Z,72.00
2017-11-23T07:02:19.340Z,76.00
2017-11-23T07:03:19.356Z,84.00
2017-11-23T07:04:19.345Z,88.00
2017-11-23T07:05:19.329Z,88.00
2017-11-23T07:06:19.338Z,96.00
2017-11-23T07:07:19.320Z,104.00
2017-11-23T07:08:19.313Z,116.00
2017-11-23T07:09:19.306Z,124.00
2017-11-23T07:10:19.313Z,128.00
2017-11-23T07:11:19.303Z,136.00
2017-11-23T07:12:19.287Z,140.00
2017-11-23T07:13:19.285Z,152.00
2017-11-23T07:14:19.267Z,160.00
2017-11-23T07:15:19.265Z,172.00
2017-11-23T07:16:19.258Z,164.00
2017-11-23T07:17:19.268Z,172.00
2017-11-23T07:18:19.243Z,180.00
2017-11-23T07:19:19.237Z,196.00
2017-11-23T07:20:19.238Z,212.00
2017-11-23T07:21:19.231Z,220.00
2017-11-23T07:22:19.225Z,248.00
2017-11-23T07:23:19.213Z,272.00
2017-11-23T07:24:19.205Z,312.00
2017-11-23T07:25:19.189Z,368.00
2017-11-23T07:26:19.190Z,404.00
2017-11-23T07:27:19.181Z,440.00
2017-11-23T07:28:19.231Z,456.00
2017-11-23T07:29:19.171Z,480.00
2017-11-23T07:30:20.063Z,508.00
2017-11-23T07:31:19.163Z,532.00
2017-11-23T07:32:19.150Z,580.00
2017-11-23T07:33:19.138Z,608.00
2017-11-23T07:34:19.133Z,628.00
2017-11-23T07:35:19.126Z,620.00
2017-11-23T07:36:19.119Z,624.00
2017-11-23T07:37:19.112Z,688.00
2017-11-23T07:38:19.106Z,728.00
2017-11-23T07:39:19.096Z,776.00
2017-11-23T07:40:19.090Z,836.00
2017-11-23T07:41:19.090Z,864.00
2017-11-23T07:42:19.078Z,848.00
2017-11-23T07:43:19.080Z,792.00
2017-11-23T07:44:22.059Z,760.00
2017-11-23T07:45:19.062Z,736.00
2017-11-23T07:46:19.054Z,764.00
2017-11-23T07:47:19.049Z,776.00
2017-11-23T07:48:19.052Z,908.00
2017-11-23T07:49:19.040Z,992.00
2017-11-23T07:50:19.028Z,1008.00
2017-11-23T07:51:19.565Z,896.00
2017-11-23T07:52:19.013Z,768.00
2017-11-23T07:53:19.011Z,868.00
2017-11-23T07:54:19.001Z,1012.00
2017-11-23T07:55:18.991Z,952.00
2017-11-23T07:56:18.985Z,796.00
2017-11-23T07:57:18.981Z,592.00
2017-11-23T07:58:18.973Z,548.00
2017-11-23T07:59:18.972Z,540.00
2017-11-23T08:00:18.963Z,544.00
2017-11-23T08:01:18.956Z,552.00
2017-11-23T08:02:18.954Z,560.00
2017-11-23T08:03:18.944Z,568.00
2017-11-23T08:04:18.938Z,600.00
2017-11-23T08:05:18.929Z,620.00
2017-11-23T08:06:18.925Z,684.00
2017-11-23T08:07:18.921Z,600.00
2017-11-23T08:07:30.914Z,620.00
2017-11-23T08:09:18.904Z,596.00
2017-11-23T08:10:18.899Z,588.00
2017-11-23T08:11:18.892Z,676.00
2017-11-23T08:12:18.884Z,716.00
2017-11-23T08:13:18.877Z,648.00
2017-11-23T08:14:18.869Z,696.00
2017-11-23T08:15:19.579Z,700.00
2017-11-23T08:16:18.876Z,644.00
2017-11-23T08:17:18.865Z,668.00
2017-11-23T08:18:18.854Z,684.00
2017-11-23T08:19:18.855Z,708.00
2017-11-23T08:20:18.839Z,712.00
2017-11-23T08:21:18.831Z,720.00
2017-11-23T08:22:18.832Z,772.00
2017-11-23T08:23:18.824Z,804.00
2017-11-23T08:24:18.812Z,816.00
2017-11-23T08:25:18.805Z,844.00
2017-11-23T08:26:18.787Z,820.00
2017-11-23T08:27:18.807Z,852.00
2017-11-23T08:28:18.776Z,896.00
2017-11-23T08:29:18.780Z,824.00
2017-11-23T08:30:19.588Z,844.00
2017-11-23T08:31:18.769Z,904.00
2017-11-23T08:32:18.761Z,884.00
2017-11-23T08:33:18.756Z,944.00
2017-11-23T08:34:18.754Z,964.00
2017-11-23T08:35:18.753Z,928.00
2017-11-23T08:36:18.739Z,984.00
2017-11-23T08:37:18.724Z,976.00
2017-11-23T08:38:18.724Z,980.00
2017-11-23T08:39:18.714Z,1028.00
2017-11-23T08:40:18.700Z,1060.00
2017-11-23T08:41:18.701Z,1052.00
2017-11-23T08:42:18.701Z,1168.00
2017-11-23T08:43:18.699Z,1248.00
2017-11-23T08:44:18.677Z,1308.00
2017-11-23T08:45:18.686Z,1332.00
2017-11-23T08:46:19.582Z,1028.00
2017-11-23T08:47:18.670Z,1008.00
2017-11-23T08:48:18.664Z,1016.00
2017-11-23T08:49:18.662Z,1132.00
2017-11-23T08:50:18.638Z,1220.00
2017-11-23T08:51:18.639Z,1132.00
2017-11-23T08:52:18.627Z,1012.00
2017-11-23T08:53:18.622Z,1040.00
2017-11-23T08:54:18.613Z,952.00
2017-11-23T08:55:18.617Z,964.00
2017-11-23T08:56:18.602Z,1012.00
2017-11-23T08:57:18.604Z,984.00
2017-11-23T08:58:18.590Z,1552.00
2017-11-23T08:59:18.608Z,1472.00
2017-11-23T09:00:18.589Z,1712.00
2017-11-23T09:01:18.573Z,1704.00
2017-11-23T09:02:18.565Z,1392.00
2017-11-23T09:03:18.563Z,1320.00
2017-11-23T09:04:18.558Z,1260.00
2017-11-23T09:05:18.551Z,1504.00
2017-11-23T09:06:18.543Z,2348.00
2017-11-23T09:07:18.533Z,1988.00
2017-11-23T09:08:18.536Z,2192.00
2017-11-23T09:09:18.534Z,2080.00
2017-11-23T09:10:18.532Z,1976.00
2017-11-23T09:11:18.534Z,2016.00
2017-11-23T09:12:18.530Z,2680.00
2017-11-23T09:13:18.505Z,2800.00
2017-11-23T09:14:18.495Z,1816.00
2017-11-23T09:15:18.506Z,1968.00
2017-11-23T09:16:18.500Z,2340.00
2017-11-23T09:17:18.489Z,1620.00
2017-11-23T09:18:18.487Z,1516.00
2017-11-23T09:19:18.478Z,1604.00
2017-11-23T09:20:18.485Z,1144.00
2017-11-23T09:21:18.475Z,1304.00
2017-11-23T09:22:18.483Z,2000.00
2017-11-23T09:23:18.479Z,1596.00
2017-11-23T09:24:18.450Z,1524.00
2017-11-23T09:25:18.455Z,2004.00
2017-11-23T09:26:18.448Z,1516.00
2017-11-23T09:27:18.446Z,1376.00
2017-11-23T09:28:18.429Z,1272.00
2017-11-23T09:29:18.424Z,1184.00
2017-11-23T09:30:18.418Z,1196.00
2017-11-23T09:31:18.423Z,1500.00
2017-11-23T09:32:18.421Z,1944.00
2017-11-23T09:33:18.417Z,3128.00
2017-11-23T09:34:18.405Z,4500.00
2017-11-23T09:35:18.405Z,2984.00
2017-11-23T09:36:18.398Z,2776.00
2017-11-23T09:37:18.408Z,2200.00
2017-11-23T09:38:18.385Z,2444.00
2017-11-23T09:39:18.385Z,1700.00
2017-11-23T09:40:18.394Z,2192.00
2017-11-23T09:41:18.378Z,2488.00
2017-11-23T09:42:18.372Z,2468.00
2017-11-23T09:43:18.372Z,1416.00
2017-11-23T09:44:18.370Z,1176.00
2017-11-23T09:45:18.374Z,1164.00
2017-11-23T09:46:18.360Z,2048.00
2017-11-23T09:47:18.351Z,2156.00
2017-11-23T09:48:18.362Z,2088.00
2017-11-23T09:49:18.340Z,2224.00
2017-11-23T09:50:18.343Z,1300.00
2017-11-23T09:51:18.351Z,1176.00
2017-11-23T09:52:18.329Z,1548.00
2017-11-23T09:53:19.121Z,1904.00
2017-11-23T09:54:18.330Z,1040.00
2017-11-23T09:55:18.323Z,1216.00
2017-11-23T09:56:18.310Z,1064.00
2017-11-23T09:57:18.302Z,1456.00
2017-11-23T09:58:18.306Z,1360.00
2017-11-23T09:59:18.305Z,1352.00
2017-11-23T10:00:18.297Z,1440.00
2017-11-23T10:01:18.302Z,1148.00
2017-11-23T10:02:18.297Z,1328.00
2017-11-23T10:03:18.297Z,1504.00
2017-11-23T10:04:18.303Z,1440.00
2017-11-23T10:05:18.286Z,1416.00
2017-11-23T10:06:18.277Z,1228.00
2017-11-23T10:07:18.272Z,1184.00
2017-11-23T10:08:18.268Z,1432.00
2017-11-23T10:09:18.280Z,1120.00
2017-11-23T10:10:18.278Z,788.00
2017-11-23T10:11:18.266Z,952.00
2017-11-23T10:12:18.251Z,1080.00
2017-11-23T10:13:18.239Z,1552.00
2017-11-23T10:14:18.242Z,1140.00
2017-11-23T10:15:18.250Z,1384.00
2017-11-23T10:16:18.239Z,1656.00
2017-11-23T10:17:18.229Z,1608.00
2017-11-23T10:18:18.228Z,1552.00
2017-11-23T10:19:18.225Z,2772.00
2017-11-23T10:20:18.222Z,3180.00
2017-11-23T10:21:18.222Z,2096.00
2017-11-23T10:22:18.217Z,2008.00
2017-11-23T10:23:18.208Z,2940.00
2017-11-23T10:24:18.201Z,2620.00
2017-11-23T10:25:18.199Z,2228.00
2017-11-23T10:26:18.193Z,2144.00
2017-11-23T10:27:18.192Z,2436.00
2017-11-23T10:28:18.187Z,3160.00
2017-11-23T10:29:18.187Z,2840.00
2017-11-23T10:30:18.186Z,2144.00
2017-11-23T10:31:18.186Z,1824.00
2017-11-23T10:32:19.137Z,1828.00
2017-11-23T10:33:18.176Z,2124.00
2017-11-23T10:34:18.177Z,2756.00
2017-11-23T10:35:18.164Z,2936.00
2017-11-23T10:36:18.163Z,2268.00
2017-11-23T10:37:18.162Z,2892.00
2017-11-23T10:38:18.151Z,3504.00
2017-11-23T10:39:18.177Z,4192.00
2017-11-23T10:40:18.150Z,2368.00
2017-11-23T10:41:18.170Z,2816.00
2017-11-23T10:42:18.159Z,3168.00
2017-11-23T10:43:18.148Z,3236.00
2017-11-23T10:44:18.153Z,1704.00
2017-11-23T10:45:18.146Z,2916.00
2017-11-23T10:46:18.124Z,3432.00
2017-11-23T10:47:18.125Z,3648.00
2017-11-23T10:48:18.119Z,3664.00
2017-11-23T10:49:18.117Z,3344.00
2017-11-23T10:50:18.141Z,3712.00
2017-11-23T10:51:18.140Z,3556.00
2017-11-23T10:52:18.649Z,3464.00
2017-11-23T10:53:18.111Z,3132.00
2017-11-23T10:54:18.102Z,3516.00
2017-11-23T10:55:18.109Z,3464.00
2017-11-23T10:56:18.099Z,3352.00
2017-11-23T10:57:18.097Z,3316.00
2017-11-23T10:58:18.097Z,3268.00
2017-11-23T10:59:18.652Z,3172.00
2017-11-23T11:00:18.094Z,2972.00
2017-11-23T11:01:18.079Z,2928.00
2017-11-23T11:02:18.078Z,2932.00
2017-11-23T11:03:18.069Z,3028.00
2017-11-23T11:04:18.065Z,3256.00
2017-11-23T11:05:18.072Z,3440.00
2017-11-23T11:06:18.076Z,3412.00
2017-11-23T11:07:18.073Z,3384.00
2017-11-23T11:08:18.058Z,3368.00
2017-11-23T11:09:18.055Z,3452.00
2017-11-23T11:10:18.056Z,3520.00
2017-11-23T11:11:18.063Z,3620.00
2017-11-23T11:12:18.050Z,3756.00
2017-11-23T11:13:18.053Z,4168.00
2017-11-23T11:14:18.046Z,4332.00
2017-11-23T11:15:18.045Z,3756.00
2017-11-23T11:16:18.041Z,3040.00
2017-11-23T11:17:18.041Z,2792.00
2017-11-23T11:18:18.042Z,3068.00
2017-11-23T11:19:18.028Z,3256.00
2017-11-23T11:20:18.038Z,2996.00
2017-11-23T11:21:18.028Z,2900.00
2017-11-23T11:22:18.047Z,2732.00
2017-11-23T11:23:18.032Z,2540.00
2017-11-23T11:24:18.011Z,2324.00
2017-11-23T11:25:18.020Z,2644.00
2017-11-23T11:26:18.014Z,2720.00
2017-11-23T11:27:18.008Z,2500.00
2017-11-23T11:28:18.033Z,2360.00
2017-11-23T11:29:18.007Z,2004.00
2017-11-23T11:30:18.012Z,1880.00
2017-11-23T11:31:18.007Z,2136.00
2017-11-23T11:32:18.021Z,2252.00
2017-11-23T11:33:18.001Z,2568.00
2017-11-23T11:34:18.025Z,2432.00
2017-11-23T11:35:17.990Z,2176.00
2017-11-23T11:36:17.983Z,1604.00
2017-11-23T11:37:17.996Z,1652.00
2017-11-23T11:38:17.982Z,1716.00
2017-11-23T11:39:17.993Z,1888.00
2017-11-23T11:40:18.000Z,2024.00
2017-11-23T11:41:17.976Z,2004.00
2017-11-23T11:42:18.683Z,2356.00
2017-11-23T11:43:17.977Z,3144.00
2017-11-23T11:44:17.969Z,3292.00
2017-11-23T11:45:17.971Z,3616.00
2017-11-23T11:46:17.987Z,3448.00
2017-11-23T11:47:17.969Z,3124.00
2017-11-23T11:48:17.957Z,3256.00
2017-11-23T11:49:17.963Z,3164.00
2017-11-23T11:50:17.957Z,3088.00
2017-11-23T11:51:17.954Z,2664.00
2017-11-23T11:52:17.961Z,3308.00
2017-11-23T11:53:17.942Z,4296.00
2017-11-23T11:54:17.945Z,3696.00
2017-11-23T11:55:17.937Z,3876.00
2017-11-23T11:56:17.938Z,3348.00
2017-11-23T11:57:17.940Z,3292.00
2017-11-23T11:58:17.977Z,3532.00
2017-11-23T11:59:17.931Z,3644.00
2017-11-23T12:00:17.928Z,3716.00
2017-11-23T12:01:18.728Z,3180.00
2017-11-23T12:02:17.925Z,3016.00
2017-11-23T12:03:17.922Z,2552.00
2017-11-23T12:04:17.925Z,3652.00
2017-11-23T12:05:17.915Z,2900.00
2017-11-23T12:06:17.914Z,2812.00
2017-11-23T12:07:17.913Z,3048.00
2017-11-23T12:08:17.912Z,2256.00
2017-11-23T12:09:17.912Z,2448.00
2017-11-23T12:10:17.909Z,2540.00
2017-11-23T12:11:17.903Z,1824.00
2017-11-23T12:12:17.916Z,1564.00
2017-11-23T12:13:17.901Z,1216.00
2017-11-23T12:14:17.901Z,1180.00
2017-11-23T12:15:17.902Z,1080.00
2017-11-23T12:16:18.682Z,1176.00
2017-11-23T12:17:17.887Z,848.00
2017-11-23T12:18:17.882Z,976.00
2017-11-23T12:19:17.878Z,1124.00
2017-11-23T12:20:17.875Z,1108.00
2017-11-23T12:21:17.881Z,1664.00
2017-11-23T12:22:18.054Z,1912.00
2017-11-23T12:23:17.878Z,1612.00
2017-11-23T12:24:17.874Z,1628.00
2017-11-23T12:25:17.876Z,1216.00
2017-11-23T12:26:17.878Z,1184.00
2017-11-23T12:27:17.865Z,892.00
2017-11-23T12:28:17.860Z,988.00
2017-11-23T12:29:17.869Z,1480.00
2017-11-23T12:30:17.860Z,1692.00
2017-11-23T12:31:17.859Z,1312.00
2017-11-23T12:32:17.876Z,1048.00
2017-11-23T12:33:17.844Z,1060.00
2017-11-23T12:34:17.846Z,1420.00
2017-11-23T12:35:17.841Z,1564.00
2017-11-23T12:36:17.837Z,2052.00
2017-11-23T12:37:17.838Z,1368.00
2017-11-23T12:38:17.835Z,1592.00
2017-11-23T12:39:17.833Z,1140.00
2017-11-23T12:40:17.832Z,1736.00
2017-11-23T12:41:17.821Z,1576.00
2017-11-23T12:42:17.829Z,1324.00
2017-11-23T12:43:17.815Z,1396.00
2017-11-23T12:44:17.815Z,844.00
2017-11-23T12:45:17.817Z,1044.00
2017-11-23T12:46:17.807Z,740.00
2017-11-23T12:47:17.805Z,824.00